sensor_id;sensor_type;location;lat;lon;timestamp;pressure;altitude;pressure_sealevel;temperature;humidity
24825;BME280;12910;57.690;11.974;2022-10-22T00:00:10;100266.97;;;9.00;100.00
24825;BME280;12910;57.690;11.974;2022-10-22T00:02:35;100265.25;;;8.99;100.00
24825;BME280;12910;57.690;11.974;2022-10-22T00:05:01;100256.72;;;8.97;100.00
24825;BME280;12910;57.690;11.974;2022-10-22T00:07:26;100261.03;;;9.00;100.00
24825;BME280;12910;57.690;11.974;2022-10-22T00:09:52;100273.03;;;9.04;100.00
24825;BME280;12910;57.690;11.974;2022-10-22T00:12:18;100265.31;;;9.02;100.00
24825;BME280;12910;57.690;11.974;2022-10-22T00:14:43;100265.25;;;8.98;100.00
24825;BME280;12910;57.690;11.974;2022-10-22T00:17:09;100275.53;;;9.02;100.00
24825;BME280;12910;57.690;11.974;2022-10-22T00:19:34;100267.75;;;8.95;100.00
24825;BME280;12910;57.690;11.974;2022-10-22T00:22:00;100269.53;;;8.99;100.00
24825;BME280;12910;57.690;11.974;2022-10-22T00:24:30;100264.44;;;9.00;100.00
24825;BME280;12910;57.690;11.974;2022-10-22T00:26:56;100258.41;;;8.97;100.00
24825;BME280;12910;57.690;11.974;2022-10-22T00:29:21;100272.91;;;8.98;100.00
24825;BME280;12910;57.690;11.974;2022-10-22T00:31:47;100273.75;;;8.97;100.00
24825;BME280;12910;57.690;11.974;2022-10-22T00:34:18;100267.78;;;8.96;100.00
24825;BME280;12910;57.690;11.974;2022-10-22T00:36:45;100271.25;;;9.00;100.00
24825;BME280;12910;57.690;11.974;2022-10-22T00:39:10;100267.81;;;8.98;100.00
24825;BME280;12910;57.690;11.974;2022-10-22T00:41:38;100259.31;;;8.99;100.00
24825;BME280;12910;57.690;11.974;2022-10-22T00:44:05;100272.16;;;9.03;100.00
24825;BME280;12910;57.690;11.974;2022-10-22T00:46:30;100265.25;;;8.98;100.00
24825;BME280;12910;57.690;11.974;2022-10-22T00:48:58;100266.16;;;9.01;100.00
24825;BME280;12910;57.690;11.974;2022-10-22T00:51:28;100264.50;;;9.03;100.00
24825;BME280;12910;57.690;11.974;2022-10-22T00:53:56;100268.84;;;9.08;100.00
24825;BME280;12910;57.690;11.974;2022-10-22T00:56:24;100263.59;;;9.01;100.00
24825;BME280;12910;57.690;11.974;2022-10-22T00:58:56;100258.47;;;9.01;100.00
24825;BME280;12910;57.690;11.974;2022-10-22T01:01:28;100268.78;;;9.04;100.00
24825;BME280;12910;57.690;11.974;2022-10-22T01:03:53;100263.66;;;9.04;100.00
24825;BME280;12910;57.690;11.974;2022-10-22T01:06:28;100259.38;;;9.03;100.00
24825;BME280;12910;57.690;11.974;2022-10-22T01:25:33;100247.56;;;9.10;100.00
24825;BME280;12910;57.690;11.974;2022-10-22T01:31:02;100234.66;;;9.02;100.00
24825;BME280;12910;57.690;11.974;2022-10-22T01:33:30;100237.34;;;9.10;100.00
24825;BME280;12910;57.690;11.974;2022-10-22T01:35:57;100238.94;;;9.05;100.00
24825;BME280;12910;57.690;11.974;2022-10-22T01:38:24;100237.34;;;9.12;100.00
24825;BME280;12910;57.690;11.974;2022-10-22T01:40:51;100231.31;;;9.07;100.00
24825;BME280;12910;57.690;11.974;2022-10-22T01:43:16;100245.00;;;9.12;100.00
24825;BME280;12910;57.690;11.974;2022-10-22T01:57:18;100234.75;;;9.09;100.00
24825;BME280;12910;57.690;11.974;2022-10-22T02:07:53;100231.31;;;9.07;100.00
24825;BME280;12910;57.690;11.974;2022-10-22T02:10:20;100229.59;;;9.07;100.00
24825;BME280;12910;57.690;11.974;2022-10-22T02:12:49;100216.81;;;9.06;100.00
24825;BME280;12910;57.690;11.974;2022-10-22T02:15:17;100224.53;;;9.09;100.00
24825;BME280;12910;57.690;11.974;2022-10-22T02:17:45;100217.69;;;9.08;100.00
24825;BME280;12910;57.690;11.974;2022-10-22T02:20:32;100221.97;;;9.09;100.00
24825;BME280;12910;57.690;11.974;2022-10-22T02:22:59;100217.69;;;9.08;100.00
24825;BME280;12910;57.690;11.974;2022-10-22T02:25:28;100216.88;;;9.09;100.00
24825;BME280;12910;57.690;11.974;2022-10-22T02:28:25;100215.09;;;9.06;100.00
24825;BME280;12910;57.690;11.974;2022-10-22T02:30:56;100221.94;;;9.07;100.00
24825;BME280;12910;57.690;11.974;2022-10-22T02:33:30;100218.53;;;9.08;100.00
24825;BME280;12910;57.690;11.974;2022-10-22T02:35:58;100224.47;;;9.06;100.00
24825;BME280;12910;57.690;11.974;2022-10-22T02:38:25;100220.25;;;9.08;100.00
24825;BME280;12910;57.690;11.974;2022-10-22T02:40:51;100203.88;;;8.96;100.00
24825;BME280;12910;57.690;11.974;2022-10-22T02:43:17;100221.03;;;9.03;100.00
24825;BME280;12910;57.690;11.974;2022-10-22T02:45:43;100207.28;;;8.95;100.00
24825;BME280;12910;57.690;11.974;2022-10-22T02:48:09;100213.38;;;9.03;100.00
24825;BME280;12910;57.690;11.974;2022-10-22T02:50:34;100219.38;;;9.06;100.00
24825;BME280;12910;57.690;11.974;2022-10-22T02:53:00;100224.47;;;9.06;100.00
24825;BME280;12910;57.690;11.974;2022-10-22T02:55:25;100211.69;;;9.04;100.00
24825;BME280;12910;57.690;11.974;2022-10-22T02:57:51;100221.03;;;9.05;100.00
24825;BME280;12910;57.690;11.974;2022-10-22T03:00:16;100210.75;;;9.00;100.00
24825;BME280;12910;57.690;11.974;2022-10-22T03:02:41;100214.19;;;9.02;100.00
24825;BME280;12910;57.690;11.974;2022-10-22T03:05:07;100210.75;;;9.00;100.00
24825;BME280;12910;57.690;11.974;2022-10-22T03:07:33;100202.25;;;9.01;100.00
24825;BME280;12910;57.690;11.974;2022-10-22T03:09:58;100209.09;;;9.02;100.00
24825;BME280;12910;57.690;11.974;2022-10-22T03:12:24;100209.13;;;9.06;100.00
24825;BME280;12910;57.690;11.974;2022-10-22T03:14:49;100196.34;;;9.04;100.00
24825;BME280;12910;57.690;11.974;2022-10-22T03:17:15;100198.91;;;9.06;100.00
24825;BME280;12910;57.690;11.974;2022-10-22T03:19:40;100197.19;;;9.04;100.00
24825;BME280;12910;57.690;11.974;2022-10-22T03:22:13;100198.91;;;9.06;100.00
24825;BME280;12910;57.690;11.974;2022-10-22T03:24:45;100205.78;;;9.10;100.00
24825;BME280;12910;57.690;11.974;2022-10-22T03:27:14;100204.03;;;9.06;100.00
24825;BME280;12910;57.690;11.974;2022-10-22T03:29:41;100207.47;;;9.08;100.00
24825;BME280;12910;57.690;11.974;2022-10-22T03:32:07;100209.13;;;9.06;100.00
24825;BME280;12910;57.690;11.974;2022-10-22T03:34:32;100210.88;;;9.07;100.00
24825;BME280;12910;57.690;11.974;2022-10-22T03:36:59;100203.06;;;8.97;100.00
24825;BME280;12910;57.690;11.974;2022-10-22T03:39:26;100209.09;;;9.02;100.00
24825;BME280;12910;57.690;11.974;2022-10-22T03:41:54;100212.50;;;9.03;100.00
24825;BME280;12910;57.690;11.974;2022-10-22T03:44:20;100218.47;;;9.02;100.00
24825;BME280;12910;57.690;11.974;2022-10-22T03:46:47;100217.66;;;9.04;100.00
24825;BME280;12910;57.690;11.974;2022-10-22T03:49:12;100216.78;;;9.04;100.00
24825;BME280;12910;57.690;11.974;2022-10-22T03:51:38;100209.03;;;8.99;100.00
24825;BME280;12910;57.690;11.974;2022-10-22T03:54:03;100221.88;;;9.02;100.00
24825;BME280;12910;57.690;11.974;2022-10-22T03:56:29;100210.72;;;8.99;100.00
24825;BME280;12910;57.690;11.974;2022-10-22T03:58:56;100222.69;;;9.01;100.00
24825;BME280;12910;57.690;11.974;2022-10-22T04:01:22;100217.50;;;8.97;100.00
24825;BME280;12910;57.690;11.974;2022-10-22T04:03:48;100214.13;;;8.99;100.00
24825;BME280;12910;57.690;11.974;2022-10-22T04:06:13;100213.22;;;8.96;100.00
24825;BME280;12910;57.690;11.974;2022-10-22T04:08:40;100209.00;;;8.96;100.00
24825;BME280;12910;57.690;11.974;2022-10-22T04:11:07;100217.59;;;9.01;100.00
24825;BME280;12910;57.690;11.974;2022-10-22T04:13:32;100213.28;;;8.99;100.00
24825;BME280;12910;57.690;11.974;2022-10-22T04:16:20;100218.47;;;9.03;100.00
24825;BME280;12910;57.690;11.974;2022-10-22T04:18:47;100208.19;;;8.99;100.00
24825;BME280;12910;57.690;11.974;2022-10-22T04:21:15;100209.00;;;8.98;100.00
24825;BME280;12910;57.690;11.974;2022-10-22T04:23:51;100217.59;;;9.01;100.00
24825;BME280;12910;57.690;11.974;2022-10-22T04:26:18;100215.91;;;9.03;100.00
24825;BME280;12910;57.690;11.974;2022-10-22T04:28:45;100216.78;;;9.04;100.00
24825;BME280;12910;57.690;11.974;2022-10-22T04:31:13;100214.19;;;9.02;100.00
24825;BME280;12910;57.690;11.974;2022-10-22T04:33:40;100212.41;;;8.97;100.00
24825;BME280;12910;57.690;11.974;2022-10-22T04:36:14;100219.25;;;8.99;100.00
24825;BME280;12910;57.690;11.974;2022-10-22T04:38:40;100215.84;;;8.97;100.00
24825;BME280;12910;57.690;11.974;2022-10-22T04:41:14;100227.88;;;9.04;100.00
24825;BME280;12910;57.690;11.974;2022-10-22T04:43:41;100229.53;;;9.02;100.00
24825;BME280;12910;57.690;11.974;2022-10-22T04:46:08;100222.59;;;8.95;100.00
24825;BME280;12910;57.690;11.974;2022-10-22T04:48:35;100227.88;;;9.04;100.00
24825;BME280;12910;57.690;11.974;2022-10-22T04:51:00;100234.69;;;9.06;100.00
24825;BME280;12910;57.690;11.974;2022-10-22T04:53:26;100223.53;;;9.00;100.00
24825;BME280;12910;57.690;11.974;2022-10-22T04:55:52;100226.09;;;9.00;100.00
24825;BME280;12910;57.690;11.974;2022-10-22T04:58:18;100220.97;;;8.99;100.00
24825;BME280;12910;57.690;11.974;2022-10-22T05:00:43;100225.22;;;8.98;100.00
24825;BME280;12910;57.690;11.974;2022-10-22T05:03:08;100222.69;;;9.01;100.00
24825;BME280;12910;57.690;11.974;2022-10-22T05:05:34;100220.97;;;9.00;100.00
24825;BME280;12910;57.690;11.974;2022-10-22T05:07:59;100220.13;;;9.01;100.00
24825;BME280;12910;57.690;11.974;2022-10-22T05:10:24;100223.56;;;9.02;100.00
24825;BME280;12910;57.690;11.974;2022-10-22T05:12:50;100222.69;;;9.01;100.00
24825;BME280;12910;57.690;11.974;2022-10-22T05:15:15;100222.69;;;9.01;100.00
24825;BME280;12910;57.690;11.974;2022-10-22T05:17:41;100222.69;;;9.00;100.00
24825;BME280;12910;57.690;11.974;2022-10-22T05:20:07;100224.28;;;8.95;100.00
24825;BME280;12910;57.690;11.974;2022-10-22T05:22:33;100230.25;;;8.94;100.00
24825;BME280;12910;57.690;11.974;2022-10-22T05:24:59;100234.50;;;8.95;100.00
24825;BME280;12910;57.690;11.974;2022-10-22T05:27:25;100223.34;;;8.88;100.00
24825;BME280;12910;57.690;11.974;2022-10-22T05:29:50;100224.28;;;8.93;100.00
24825;BME280;12910;57.690;11.974;2022-10-22T05:32:16;100231.97;;;8.95;100.00
24825;BME280;12910;57.690;11.974;2022-10-22T05:34:41;100237.06;;;8.95;100.00
24825;BME280;12910;57.690;11.974;2022-10-22T05:37:07;100238.84;;;8.97;100.00
24825;BME280;12910;57.690;11.974;2022-10-22T05:39:32;100225.94;;;8.91;100.00
24825;BME280;12910;57.690;11.974;2022-10-22T05:42:01;100231.09;;;8.94;100.00
24825;BME280;12910;57.690;11.974;2022-10-22T05:44:27;100228.53;;;8.93;100.00
24825;BME280;12910;57.690;11.974;2022-10-22T05:46:52;100239.66;;;8.96;100.00
24825;BME280;12910;57.690;11.974;2022-10-22T05:49:17;100236.22;;;8.94;100.00
24825;BME280;12910;57.690;11.974;2022-10-22T05:51:43;100237.94;;;8.95;100.00
24825;BME280;12910;57.690;11.974;2022-10-22T05:54:15;100243.91;;;8.96;100.00
24825;BME280;12910;57.690;11.974;2022-10-22T05:56:41;100237.94;;;8.95;100.00
24825;BME280;12910;57.690;11.974;2022-10-22T05:59:06;100244.81;;;8.99;100.00
24825;BME280;12910;57.690;11.974;2022-10-22T06:01:32;100242.25;;;8.99;100.00
24825;BME280;12910;57.690;11.974;2022-10-22T06:04:01;100244.03;;;9.02;100.00
24825;BME280;12910;57.690;11.974;2022-10-22T06:06:46;100250.78;;;8.98;100.00
24825;BME280;12910;57.690;11.974;2022-10-22T06:11:41;100246.50;;;8.97;100.00
24825;BME280;12910;57.690;11.974;2022-10-22T06:14:08;100254.19;;;8.99;100.00
24825;BME280;12910;57.690;11.974;2022-10-22T06:16:33;100254.19;;;8.99;100.00
24825;BME280;12910;57.690;11.974;2022-10-22T06:18:59;100265.31;;;9.02;100.00
24825;BME280;12910;57.690;11.974;2022-10-22T06:21:26;100252.41;;;8.95;100.00
24825;BME280;12910;57.690;11.974;2022-10-22T06:23:57;100256.75;;;9.00;100.00
24825;BME280;12910;57.690;11.974;2022-10-22T06:26:23;100254.19;;;8.99;100.00
24825;BME280;12910;57.690;11.974;2022-10-22T06:28:48;100264.47;;;9.02;100.00
24825;BME280;12910;57.690;11.974;2022-10-22T06:31:14;100251.63;;;8.97;100.00
24825;BME280;12910;57.690;11.974;2022-10-22T06:33:39;100242.25;;;8.98;100.00
24825;BME280;12910;57.690;11.974;2022-10-22T06:36:10;100249.13;;;9.02;100.00
24825;BME280;12910;57.690;11.974;2022-10-22T06:38:36;100255.09;;;9.02;100.00
24825;BME280;12910;57.690;11.974;2022-10-22T06:41:06;100265.38;;;9.06;100.00
24825;BME280;12910;57.690;11.974;2022-10-22T06:43:32;100253.38;;;9.01;100.00
24825;BME280;12910;57.690;11.974;2022-10-22T06:46:03;100266.19;;;9.03;100.00
24825;BME280;12910;57.690;11.974;2022-10-22T06:48:29;100263.66;;;9.04;100.00
24825;BME280;12910;57.690;11.974;2022-10-22T06:50:55;100259.41;;;9.05;100.00
24825;BME280;12910;57.690;11.974;2022-10-22T06:53:21;100267.94;;;9.07;100.00
24825;BME280;12910;57.690;11.974;2022-10-22T06:55:46;100273.06;;;9.07;100.00
24825;BME280;12910;57.690;11.974;2022-10-22T06:58:12;100271.31;;;9.04;100.00
24825;BME280;12910;57.690;11.974;2022-10-22T07:00:37;100267.09;;;9.07;100.00
24825;BME280;12910;57.690;11.974;2022-10-22T07:03:03;100277.34;;;9.07;100.00
24825;BME280;12910;57.690;11.974;2022-10-22T07:05:28;100265.44;;;9.09;100.00
24825;BME280;12910;57.690;11.974;2022-10-22T07:07:53;100272.31;;;9.13;100.00
24825;BME280;12910;57.690;11.974;2022-10-22T07:10:19;100270.66;;;9.15;100.00
24825;BME280;12910;57.690;11.974;2022-10-22T07:12:44;100269.81;;;9.17;100.00
24825;BME280;12910;57.690;11.974;2022-10-22T07:15:10;100279.22;;;9.18;100.00
24825;BME280;12910;57.690;11.974;2022-10-22T07:17:35;100278.34;;;9.16;100.00
24825;BME280;12910;57.690;11.974;2022-10-22T07:20:01;100269.81;;;9.17;100.00
24825;BME280;12910;57.690;11.974;2022-10-22T07:22:26;100264.59;;;9.10;100.00
24825;BME280;12910;57.690;11.974;2022-10-22T07:24:51;100284.34;;;9.20;100.00
24825;BME280;12910;57.690;11.974;2022-10-22T07:27:17;100276.66;;;9.18;100.00
24825;BME280;12910;57.690;11.974;2022-10-22T07:29:42;100282.69;;;9.20;100.00
24825;BME280;12910;57.690;11.974;2022-10-22T07:32:07;100280.16;;;9.24;100.00
24825;BME280;12910;57.690;11.974;2022-10-22T07:34:33;100276.66;;;9.18;100.00
24825;BME280;12910;57.690;11.974;2022-10-22T07:36:58;100280.13;;;9.20;100.00
24825;BME280;12910;57.690;11.974;2022-10-22T07:39:24;100287.81;;;9.24;100.00
24825;BME280;12910;57.690;11.974;2022-10-22T07:41:50;100278.41;;;9.21;100.00
24825;BME280;12910;57.690;11.974;2022-10-22T07:44:15;100286.13;;;9.24;100.00
24825;BME280;12910;57.690;11.974;2022-10-22T07:46:41;100292.16;;;9.26;100.00
24825;BME280;12910;57.690;11.974;2022-10-22T07:49:06;100290.50;;;9.30;100.00
24825;BME280;12910;57.690;11.974;2022-10-22T07:51:32;100289.66;;;9.32;100.00
24825;BME280;12910;57.690;11.974;2022-10-22T07:53:57;100296.56;;;9.37;100.00
24825;BME280;12910;57.690;11.974;2022-10-22T07:56:22;100297.34;;;9.34;100.00
24825;BME280;12910;57.690;11.974;2022-10-22T07:58:48;100291.41;;;9.33;100.00
24825;BME280;12910;57.690;11.974;2022-10-22T08:01:13;100297.41;;;9.35;100.00
24825;BME280;12910;57.690;11.974;2022-10-22T08:03:38;100298.31;;;9.41;100.00
24825;BME280;12910;57.690;11.974;2022-10-22T08:06:04;100300.88;;;9.41;100.00
24825;BME280;12910;57.690;11.974;2022-10-22T08:08:30;100301.84;;;9.46;100.00
24825;BME280;12910;57.690;11.974;2022-10-22T08:10:57;100306.97;;;9.49;100.00
24825;BME280;12910;57.690;11.974;2022-10-22T08:13:23;100304.41;;;9.49;100.00
24825;BME280;12910;57.690;11.974;2022-10-22T08:15:50;100292.38;;;9.40;100.00
24825;BME280;12910;57.690;11.974;2022-10-22T08:18:15;100310.41;;;9.51;100.00
24825;BME280;12910;57.690;11.974;2022-10-22T08:20:41;100306.13;;;9.48;100.00
24825;BME280;12910;57.690;11.974;2022-10-22T08:23:06;100308.75;;;9.51;100.00
24825;BME280;12910;57.690;11.974;2022-10-22T08:25:32;100302.75;;;9.51;100.00
24825;BME280;12910;57.690;11.974;2022-10-22T08:27:57;100314.72;;;9.54;100.00
24825;BME280;12910;57.690;11.974;2022-10-22T08:30:23;100312.19;;;9.55;100.00
24825;BME280;12910;57.690;11.974;2022-10-22T08:32:51;100307.09;;;9.55;100.00
24825;BME280;12910;57.690;11.974;2022-10-22T08:35:17;100312.22;;;9.58;100.00
24825;BME280;12910;57.690;11.974;2022-10-22T08:37:42;100317.34;;;9.58;100.00
24825;BME280;12910;57.690;11.974;2022-10-22T08:40:11;100314.00;;;9.61;100.00
24825;BME280;12910;57.690;11.974;2022-10-22T08:43:26;100300.28;;;9.57;100.00
24825;BME280;12910;57.690;11.974;2022-10-22T08:48:55;100317.41;;;9.61;100.00
24825;BME280;12910;57.690;11.974;2022-10-22T08:51:24;100306.28;;;9.59;100.00
24825;BME280;12910;57.690;11.974;2022-10-22T08:57:02;100317.34;;;9.58;100.00
24825;BME280;12910;57.690;11.974;2022-10-22T08:59:34;100315.75;;;9.63;100.00
24825;BME280;12910;57.690;11.974;2022-10-22T09:04:46;100310.69;;;9.70;100.00
24825;BME280;12910;57.690;11.974;2022-10-22T09:07:15;100306.28;;;9.59;100.00
24825;BME280;12910;57.690;11.974;2022-10-22T09:09:45;100316.50;;;9.58;100.00
24825;BME280;12910;57.690;11.974;2022-10-22T09:12:15;100312.19;;;9.55;100.00
24825;BME280;12910;57.690;11.974;2022-10-22T09:14:41;100317.47;;;9.64;100.00
24825;BME280;12910;57.690;11.974;2022-10-22T09:17:15;100321.63;;;9.58;100.00
24825;BME280;12910;57.690;11.974;2022-10-22T09:22:26;100322.50;;;9.60;100.00
24825;BME280;12910;57.690;11.974;2022-10-22T09:25:01;100325.91;;;9.60;100.00
24825;BME280;12910;57.690;11.974;2022-10-22T09:27:33;100325.03;;;9.58;100.00
24825;BME280;12910;57.690;11.974;2022-10-22T09:29:59;100313.72;;;9.44;100.00
24825;BME280;12910;57.690;11.974;2022-10-22T09:32:25;100326.44;;;9.38;100.00
24825;BME280;12910;57.690;11.974;2022-10-22T09:34:55;100336.75;;;9.44;100.00
24825;BME280;12910;57.690;11.974;2022-10-22T09:37:25;100328.19;;;9.43;100.00
24825;BME280;12910;57.690;11.974;2022-10-22T09:39:53;100327.38;;;9.44;100.00
24825;BME280;12910;57.690;11.974;2022-10-22T09:42:19;100316.16;;;9.36;100.00
24825;BME280;12910;57.690;11.974;2022-10-22T09:44:53;100336.78;;;9.45;100.00
24825;BME280;12910;57.690;11.974;2022-10-22T09:50:14;100318.09;;;9.49;100.00
24825;BME280;12910;57.690;11.974;2022-10-22T09:52:43;100313.78;;;9.47;100.00
24825;BME280;12910;57.690;11.974;2022-10-22T09:55:17;100334.22;;;9.45;100.00
24825;BME280;12910;57.690;11.974;2022-10-22T09:57:42;100335.88;;;9.42;100.00
24825;BME280;12910;57.690;11.974;2022-10-22T10:00:10;100341.78;;;9.38;100.00
24825;BME280;12910;57.690;11.974;2022-10-22T10:02:39;100340.91;;;9.37;100.00
24825;BME280;12910;57.690;11.974;2022-10-22T10:05:07;100347.75;;;9.40;100.00
24825;BME280;12910;57.690;11.974;2022-10-22T10:07:34;100343.53;;;9.42;100.00
24825;BME280;12910;57.690;11.974;2022-10-22T10:10:00;100343.59;;;9.45;100.00
24825;BME280;12910;57.690;11.974;2022-10-22T10:12:45;100334.97;;;9.40;100.00
24825;BME280;12910;57.690;11.974;2022-10-22T10:15:23;100342.78;;;9.49;100.00
24825;BME280;12910;57.690;11.974;2022-10-22T10:18:21;100333.38;;;9.48;100.00
24825;BME280;12910;57.690;11.974;2022-10-22T10:21:05;100336.06;;;9.54;100.00
24825;BME280;12910;57.690;11.974;2022-10-22T10:23:47;100342.06;;;9.56;100.00
24825;BME280;12910;57.690;11.974;2022-10-22T10:26:33;100339.44;;;9.51;100.00
24825;BME280;12910;57.690;11.974;2022-10-22T10:34:48;100340.28;;;9.52;100.00
24825;BME280;12910;57.690;11.974;2022-10-22T10:37:24;100340.19;;;9.46;100.00
24825;BME280;12910;57.690;11.974;2022-10-22T10:42:51;100352.38;;;9.61;100.00
24825;BME280;12910;57.690;11.974;2022-10-22T10:53:53;100351.56;;;9.63;100.00
24825;BME280;12910;57.690;11.974;2022-10-22T10:56:40;100341.28;;;9.60;100.00
24825;BME280;12910;57.690;11.974;2022-10-22T11:05:02;100348.25;;;9.72;100.00
24825;BME280;12910;57.690;11.974;2022-10-22T11:07:35;100349.22;;;9.79;100.00
24825;BME280;12910;57.690;11.974;2022-10-22T11:12:41;100348.59;;;9.92;100.00
24825;BME280;12910;57.690;11.974;2022-10-22T11:17:45;100352.03;;;9.94;100.00
24825;BME280;12910;57.690;11.974;2022-10-22T11:23:23;100341.72;;;9.91;100.00
24825;BME280;12910;57.690;11.974;2022-10-22T11:25:51;100330.66;;;9.92;100.00
24825;BME280;12910;57.690;11.974;2022-10-22T11:28:27;100329.88;;;9.98;100.00
24825;BME280;12910;57.690;11.974;2022-10-22T11:30:59;100332.53;;;10.06;100.00
24825;BME280;12910;57.690;11.974;2022-10-22T11:33:32;100326.56;;;10.07;100.00
24825;BME280;12910;57.690;11.974;2022-10-22T11:36:02;100328.34;;;10.11;100.00
24825;BME280;12910;57.690;11.974;2022-10-22T11:38:30;100331.78;;;10.13;100.00
24825;BME280;12910;57.690;11.974;2022-10-22T11:40:58;100325.03;;;10.18;100.00
24825;BME280;12910;57.690;11.974;2022-10-22T11:43:33;100338.66;;;10.17;100.00
24825;BME280;12910;57.690;11.974;2022-10-22T11:46:24;100327.53;;;10.15;100.00
24825;BME280;12910;57.690;11.974;2022-10-22T11:51:39;100327.69;;;10.26;100.00
24825;BME280;12910;57.690;11.974;2022-10-22T11:59:46;100326.06;;;10.34;100.00
24825;BME280;12910;57.690;11.974;2022-10-22T12:07:52;100327.75;;;10.29;100.00
24825;BME280;12910;57.690;11.974;2022-10-22T12:10:25;100321.66;;;10.22;100.00
24825;BME280;12910;57.690;11.974;2022-10-22T12:12:55;100335.47;;;10.34;100.00
24825;BME280;12910;57.690;11.974;2022-10-22T12:15:28;100336.28;;;10.31;100.00
24825;BME280;12910;57.690;11.974;2022-10-22T12:18:01;100330.31;;;10.31;100.00
24825;BME280;12910;57.690;11.974;2022-10-22T12:20:29;100335.38;;;10.27;100.00
24825;BME280;12910;57.690;11.974;2022-10-22T12:22:56;100321.56;;;10.16;100.00
24825;BME280;12910;57.690;11.974;2022-10-22T12:25:29;100321.56;;;10.14;100.00
24825;BME280;12910;57.690;11.974;2022-10-22T12:27:57;100335.31;;;10.23;100.00
24825;BME280;12910;57.690;11.974;2022-10-22T12:30:29;100331.91;;;10.22;100.00
24825;BME280;12910;57.690;11.974;2022-10-22T12:32:57;100326.78;;;10.22;100.00
24825;BME280;12910;57.690;11.974;2022-10-22T12:35:26;100319.13;;;10.25;100.00
24825;BME280;12910;57.690;11.974;2022-10-22T12:37:57;100323.47;;;10.29;100.00
24825;BME280;12910;57.690;11.974;2022-10-22T12:40:29;100328.63;;;10.33;100.00
24825;BME280;12910;57.690;11.974;2022-10-22T12:42:58;100333.75;;;10.33;100.00
24825;BME280;12910;57.690;11.974;2022-10-22T12:45:29;100330.28;;;10.29;100.00
24825;BME280;12910;57.690;11.974;2022-10-22T12:47:58;100320.00;;;10.27;100.00
24825;BME280;12910;57.690;11.974;2022-10-22T12:50:36;100323.50;;;10.33;100.00
24825;BME280;12910;57.690;11.974;2022-10-22T12:53:17;100326.03;;;10.31;100.00
24825;BME280;12910;57.690;11.974;2022-10-22T12:55:49;100330.34;;;10.34;100.00
24825;BME280;12910;57.690;11.974;2022-10-22T12:58:21;100335.47;;;10.34;100.00
24825;BME280;12910;57.690;11.974;2022-10-22T13:00:54;100338.00;;;10.32;100.00
24825;BME280;12910;57.690;11.974;2022-10-22T13:05:54;100325.13;;;10.27;100.00
24825;BME280;12910;57.690;11.974;2022-10-22T13:08:21;100330.25;;;10.27;100.00
24825;BME280;12910;57.690;11.974;2022-10-22T13:10:52;100337.97;;;10.29;100.00
24825;BME280;12910;57.690;11.974;2022-10-22T13:13:40;100327.75;;;10.31;100.00
24825;BME280;12910;57.690;11.974;2022-10-22T13:16:19;100336.22;;;10.26;100.00
24825;BME280;12910;57.690;11.974;2022-10-22T13:18:45;100332.75;;;10.23;100.00
24825;BME280;12910;57.690;11.974;2022-10-22T13:21:35;100337.94;;;10.26;100.00
24825;BME280;12910;57.690;11.974;2022-10-22T13:24:19;100338.78;;;10.26;100.00
24825;BME280;12910;57.690;11.974;2022-10-22T13:26:48;100327.63;;;10.21;100.00
24825;BME280;12910;57.690;11.974;2022-10-22T13:29:16;100340.44;;;10.24;100.00
24825;BME280;12910;57.690;11.974;2022-10-22T13:31:48;100326.78;;;10.22;100.00
24825;BME280;12910;57.690;11.974;2022-10-22T13:34:17;100330.19;;;10.21;100.00
24825;BME280;12910;57.690;11.974;2022-10-22T13:36:43;100318.16;;;10.16;100.00
24825;BME280;12910;57.690;11.974;2022-10-22T13:39:20;100331.03;;;10.19;100.00
24825;BME280;12910;57.690;11.974;2022-10-22T13:41:46;100337.00;;;10.19;100.00
24825;BME280;12910;57.690;11.974;2022-10-22T13:44:15;100334.44;;;10.19;100.00
24825;BME280;12910;57.690;11.974;2022-10-22T13:46:41;100331.81;;;10.16;100.00
24825;BME280;12910;57.690;11.974;2022-10-22T13:49:18;100330.13;;;10.17;100.00
24825;BME280;12910;57.690;11.974;2022-10-22T13:51:45;100336.16;;;10.22;100.00
24825;BME280;12910;57.690;11.974;2022-10-22T13:54:21;100334.44;;;10.21;100.00
24825;BME280;12910;57.690;11.974;2022-10-22T13:56:48;100336.94;;;10.16;100.00
24825;BME280;12910;57.690;11.974;2022-10-22T13:59:14;100342.09;;;10.19;100.00
24825;BME280;12910;57.690;11.974;2022-10-22T14:01:39;100341.22;;;10.17;100.00
24825;BME280;12910;57.690;11.974;2022-10-22T14:04:07;100344.66;;;10.19;100.00
24825;BME280;12910;57.690;11.974;2022-10-22T14:06:35;100341.19;;;10.14;100.00
24825;BME280;12910;57.690;11.974;2022-10-22T14:09:03;100337.72;;;10.10;100.00
24825;BME280;12910;57.690;11.974;2022-10-22T14:11:29;100343.78;;;10.16;100.00
24825;BME280;12910;57.690;11.974;2022-10-22T14:13:56;100347.16;;;10.14;100.00
24825;BME280;12910;57.690;11.974;2022-10-22T14:16:23;100352.28;;;10.14;100.00
24825;BME280;12910;57.690;11.974;2022-10-22T14:18:50;100346.34;;;10.16;100.00
24825;BME280;12910;57.690;11.974;2022-10-22T14:21:17;100348.97;;;10.20;100.00
24825;BME280;12910;57.690;11.974;2022-10-22T14:23:44;100354.06;;;10.19;100.00
24825;BME280;12910;57.690;11.974;2022-10-22T14:26:24;100358.38;;;10.21;100.00
24825;BME280;12910;57.690;11.974;2022-10-22T14:28:51;100358.25;;;10.15;100.00